Time;durP1;ratioP1;P1;durP2;ratioP2;P2;SDS_P1;SDS_P2;PMS_P1;PMS_P2;Temp;Humidity;BMP_temperature;BMP_pressure;BME280_temperature;BME280_humidity;BME280_pressure;Samples;Min_cycle;Max_cycle;Signal;HPM_P1;HPM_P2
2024/01/19 00:02:21;;;;;;;66.18;31.42;;;;;;;;;;5021194;28;20175;-82
2024/01/19 00:04:47;;;;;;;92.10;31.13;;;;;;;;;;5020770;28;20186;-82
2024/01/19 00:07:13;;;;;;;73.90;31.30;;;;;;;;;;5022001;28;20165;-82
2024/01/19 00:09:39;;;;;;;58.35;30.00;;;;;;;;;;5021376;28;20167;-81
2024/01/19 00:12:05;;;;;;;80.93;31.23;;;;;;;;;;5021310;28;20198;-83
2024/01/19 00:14:31;;;;;;;78.70;31.95;;;;;;;;;;5021538;28;20210;-82
2024/01/19 00:16:57;;;;;;;64.60;29.80;;;;;;;;;;5020428;28;20179;-83
2024/01/19 00:19:23;;;;;;;85.33;32.70;;;;;;;;;;5009414;28;20430;-82
2024/01/19 00:21:49;;;;;;;65.90;27.83;;;;;;;;;;5001362;28;20437;-83
2024/01/19 00:24:15;;;;;;;76.32;31.52;;;;;;;;;;5001094;28;20179;-82
2024/01/19 00:26:46;;;;;;;59.28;27.20;;;;;;;;;;5001705;28;20175;-82
2024/01/19 00:29:12;;;;;;;62.42;28.75;;;;;;;;;;5016412;28;20180;-82
2024/01/19 00:31:38;;;;;;;55.42;29.08;;;;;;;;;;5001324;28;20203;-82
2024/01/19 00:34:04;;;;;;;69.22;28.13;;;;;;;;;;5001347;28;20186;-82
2024/01/19 00:36:30;;;;;;;61.88;29.60;;;;;;;;;;5016595;28;20207;-82
2024/01/19 00:38:57;;;;;;;53.53;27.90;;;;;;;;;;5001588;28;20171;-83
2024/01/19 00:41:23;;;;;;;62.80;29.15;;;;;;;;;;5001594;28;20179;-82
2024/01/19 00:43:49;;;;;;;55.63;28.35;;;;;;;;;;5012217;28;20180;-82
2024/01/19 00:46:15;;;;;;;51.17;28.20;;;;;;;;;;5028189;28;20277;-82
2024/01/19 00:48:41;;;;;;;57.43;27.33;;;;;;;;;;5020551;28;20285;-82
2024/01/19 00:51:07;;;;;;;69.65;30.23;;;;;;;;;;5025192;28;20481;-82
2024/01/19 00:53:33;;;;;;;54.85;27.17;;;;;;;;;;5019583;28;20187;-82
2024/01/19 00:55:59;;;;;;;57.05;27.15;;;;;;;;;;5020427;28;20203;-83
2024/01/19 00:58:25;;;;;;;77.32;34.20;;;;;;;;;;5020718;28;20202;-82
2024/01/19 01:00:51;;;;;;;65.80;28.23;;;;;;;;;;5020995;28;20197;-82
2024/01/19 01:03:28;;;;;;;94.75;29.33;;;;;;;;;;5025950;28;20420;-82
2024/01/19 01:05:56;;;;;;;62.10;28.55;;;;;;;;;;5040482;28;20261;-82
2024/01/19 01:08:22;;;;;;;98.65;30.98;;;;;;;;;;5040898;28;20170;-82
2024/01/19 01:10:48;;;;;;;60.25;27.23;;;;;;;;;;5040403;28;20234;-82
2024/01/19 01:13:14;;;;;;;77.63;29.55;;;;;;;;;;5040778;28;20178;-82
2024/01/19 01:15:41;;;;;;;82.78;26.70;;;;;;;;;;5040308;28;20664;-82
2024/01/19 01:18:07;;;;;;;55.70;26.00;;;;;;;;;;5040231;28;20181;-82
2024/01/19 01:20:33;;;;;;;70.20;27.80;;;;;;;;;;5039714;28;20186;-82
2024/01/19 01:22:59;;;;;;;54.63;27.00;;;;;;;;;;5040622;28;20256;-83
2024/01/19 01:25:25;;;;;;;56.45;27.50;;;;;;;;;;5040399;28;20177;-82
2024/01/19 01:27:51;;;;;;;55.90;27.20;;;;;;;;;;5038917;28;20240;-82
2024/01/19 01:30:17;;;;;;;83.32;32.42;;;;;;;;;;5038704;28;20559;-82
2024/01/19 01:32:43;;;;;;;53.47;28.63;;;;;;;;;;5040311;28;20177;-82
2024/01/19 01:35:09;;;;;;;72.20;29.33;;;;;;;;;;5039861;28;20404;-82
2024/01/19 01:37:35;;;;;;;61.95;27.63;;;;;;;;;;5039645;28;20168;-82
2024/01/19 01:40:01;;;;;;;65.28;29.00;;;;;;;;;;5039502;28;20261;-82
2024/01/19 01:42:27;;;;;;;60.90;28.17;;;;;;;;;;5040117;28;20260;-82
2024/01/19 01:44:54;;;;;;;52.23;26.43;;;;;;;;;;5021590;28;20179;-82
2024/01/19 01:47:20;;;;;;;58.05;27.40;;;;;;;;;;5020145;28;20412;-82
2024/01/19 01:49:46;;;;;;;81.70;28.13;;;;;;;;;;5019767;28;20222;-82
2024/01/19 01:52:12;;;;;;;52.80;26.63;;;;;;;;;;5020348;28;20214;-83
2024/01/19 01:54:38;;;;;;;48.22;25.13;;;;;;;;;;5020073;28;20546;-82
2024/01/19 01:57:04;;;;;;;49.03;23.52;;;;;;;;;;5019291;28;20179;-83
2024/01/19 01:59:30;;;;;;;54.38;24.17;;;;;;;;;;5018432;28;20183;-82
2024/01/19 02:01:56;;;;;;;41.28;20.40;;;;;;;;;;5019378;28;20627;-82
2024/01/19 02:04:24;;;;;;;42.92;21.77;;;;;;;;;;5019832;28;20556;-82
2024/01/19 02:06:50;;;;;;;38.20;21.30;;;;;;;;;;5020318;28;20177;-82
2024/01/19 02:09:16;;;;;;;42.53;21.20;;;;;;;;;;5018134;28;20244;-81
2024/01/19 02:11:42;;;;;;;41.35;19.05;;;;;;;;;;5018380;28;20230;-82
2024/01/19 02:14:10;;;;;;;43.17;22.60;;;;;;;;;;5026183;28;20213;-82
2024/01/19 02:16:36;;;;;;;39.63;20.42;;;;;;;;;;5039203;28;20209;-81
2024/01/19 02:19:02;;;;;;;41.63;20.52;;;;;;;;;;5039018;28;20184;-82
2024/01/19 02:21:29;;;;;;;40.42;21.10;;;;;;;;;;5039820;28;20641;-82
2024/01/19 02:24:00;;;;;;;44.63;23.00;;;;;;;;;;5038037;28;20195;-81
2024/01/19 02:26:27;;;;;;;50.05;22.63;;;;;;;;;;5039338;28;20196;-82
2024/01/19 02:28:53;;;;;;;38.88;21.50;;;;;;;;;;5039511;28;20173;-81
2024/01/19 02:31:19;;;;;;;43.03;21.30;;;;;;;;;;5039126;28;20223;-82
2024/01/19 02:33:45;;;;;;;37.72;21.13;;;;;;;;;;5039172;28;20401;-82
2024/01/19 02:36:11;;;;;;;38.42;19.83;;;;;;;;;;5039634;28;20178;-82
2024/01/19 02:38:36;;;;;;;34.87;20.30;;;;;;;;;;5039341;28;20181;-82
2024/01/19 02:41:02;;;;;;;40.33;20.38;;;;;;;;;;5039405;28;20488;-82
2024/01/19 02:43:28;;;;;;;43.23;22.87;;;;;;;;;;5039073;28;20182;-82
2024/01/19 02:45:54;;;;;;;35.50;20.42;;;;;;;;;;5038078;28;20991;-82
2024/01/19 02:48:20;;;;;;;38.85;21.05;;;;;;;;;;5039115;28;20174;-82
2024/01/19 02:50:46;;;;;;;37.13;19.60;;;;;;;;;;5040034;28;20292;-82
2024/01/19 02:53:12;;;;;;;39.65;22.38;;;;;;;;;;5040323;28;20196;-82
2024/01/19 02:55:38;;;;;;;46.30;22.77;;;;;;;;;;5039970;28;20173;-82
2024/01/19 02:58:04;;;;;;;39.08;20.35;;;;;;;;;;5040103;28;20220;-82
2024/01/19 03:00:30;;;;;;;33.00;20.73;;;;;;;;;;5039976;28;20181;-82
2024/01/19 03:02:56;;;;;;;37.03;20.60;;;;;;;;;;5039039;28;20401;-82
2024/01/19 03:05:22;;;;;;;40.05;21.80;;;;;;;;;;5038624;28;20861;-82
2024/01/19 03:07:48;;;;;;;41.83;22.58;;;;;;;;;;5039498;28;20182;-82
2024/01/19 03:10:14;;;;;;;41.85;24.08;;;;;;;;;;5039873;28;20280;-81
2024/01/19 03:12:40;;;;;;;44.42;22.67;;;;;;;;;;5037988;28;20191;-82
2024/01/19 03:15:06;;;;;;;39.20;19.53;;;;;;;;;;5021591;28;20197;-82
2024/01/19 03:17:33;;;;;;;40.38;20.38;;;;;;;;;;5020204;28;20398;-82
2024/01/19 03:19:59;;;;;;;39.45;21.67;;;;;;;;;;5018938;28;20518;-82
2024/01/19 03:22:25;;;;;;;38.78;20.75;;;;;;;;;;5019687;28;20175;-81
2024/01/19 03:24:51;;;;;;;34.78;21.45;;;;;;;;;;5019552;28;20170;-80
2024/01/19 03:27:17;;;;;;;40.28;20.92;;;;;;;;;;5019879;28;20190;-81
2024/01/19 03:29:44;;;;;;;38.22;20.88;;;;;;;;;;5019891;28;20179;-81
2024/01/19 03:32:10;;;;;;;38.13;20.20;;;;;;;;;;5019359;28;20202;-82
2024/01/19 03:34:36;;;;;;;32.42;17.92;;;;;;;;;;5020429;28;20178;-81
2024/01/19 03:37:05;;;;;;;34.80;19.30;;;;;;;;;;5019645;28;20177;-81
2024/01/19 03:39:32;;;;;;;37.97;20.15;;;;;;;;;;5019560;28;20222;-81
2024/01/19 03:41:58;;;;;;;38.10;20.13;;;;;;;;;;5019897;28;20528;-81
2024/01/19 03:44:24;;;;;;;35.90;20.25;;;;;;;;;;5020924;28;20258;-81
2024/01/19 03:46:50;;;;;;;35.50;19.13;;;;;;;;;;5023223;28;20614;-81
2024/01/19 03:49:17;;;;;;;38.65;19.90;;;;;;;;;;5024311;28;20315;-82
2024/01/19 03:52:01;;;;;;;31.60;17.67;;;;;;;;;;5023126;28;20210;-81
2024/01/19 03:54:27;;;;;;;42.47;22.38;;;;;;;;;;5022026;28;20233;-82
2024/01/19 03:56:54;;;;;;;42.25;19.75;;;;;;;;;;5023344;28;20719;-81
2024/01/19 03:59:20;;;;;;;41.08;20.88;;;;;;;;;;5022699;28;20185;-82
2024/01/19 04:01:46;;;;;;;34.33;19.40;;;;;;;;;;5022943;28;20175;-81
2024/01/19 04:04:12;;;;;;;35.00;21.35;;;;;;;;;;5022079;28;20175;-82
2024/01/19 04:06:38;;;;;;;43.10;21.38;;;;;;;;;;5022773;28;20714;-82
2024/01/19 04:09:04;;;;;;;36.65;19.75;;;;;;;;;;5021181;28;20207;-81
2024/01/19 04:11:33;;;;;;;38.63;20.20;;;;;;;;;;5022906;28;20698;-81
2024/01/19 04:13:59;;;;;;;34.05;20.55;;;;;;;;;;5011937;28;20190;-81
2024/01/19 04:16:25;;;;;;;41.88;21.50;;;;;;;;;;5018654;28;20282;-81
2024/01/19 04:18:51;;;;;;;37.10;20.37;;;;;;;;;;5022670;28;20182;-82
2024/01/19 04:21:17;;;;;;;37.15;18.25;;;;;;;;;;5002531;28;20895;-82
2024/01/19 04:23:44;;;;;;;37.33;19.08;;;;;;;;;;5002456;28;20182;-81
2024/01/19 04:26:10;;;;;;;35.92;20.00;;;;;;;;;;5003015;28;20263;-81
2024/01/19 04:28:36;;;;;;;40.53;19.33;;;;;;;;;;5001674;28;20207;-81
2024/01/19 04:31:02;;;;;;;33.90;18.48;;;;;;;;;;5002729;28;20204;-82
2024/01/19 04:33:28;;;;;;;36.40;19.13;;;;;;;;;;5002552;28;20189;-81
2024/01/19 04:35:54;;;;;;;41.40;19.20;;;;;;;;;;5002787;28;20175;-81
2024/01/19 04:38:20;;;;;;;34.78;19.10;;;;;;;;;;5002726;28;20542;-81
2024/01/19 04:40:46;;;;;;;29.88;18.30;;;;;;;;;;5002800;28;20625;-81
2024/01/19 04:43:12;;;;;;;34.40;19.07;;;;;;;;;;5002000;28;20350;-82
2024/01/19 04:45:38;;;;;;;30.07;18.60;;;;;;;;;;5012083;28;20418;-81
2024/01/19 04:48:04;;;;;;;28.65;17.48;;;;;;;;;;5002281;28;20411;-81
2024/01/19 04:50:30;;;;;;;30.20;17.02;;;;;;;;;;5017128;28;20223;-81
2024/01/19 04:52:56;;;;;;;29.92;15.93;;;;;;;;;;5002769;28;20185;-81
2024/01/19 04:55:22;;;;;;;32.67;16.30;;;;;;;;;;5002155;28;20237;-81
2024/01/19 04:57:48;;;;;;;31.58;16.40;;;;;;;;;;5002491;28;20165;-81
2024/01/19 05:00:14;;;;;;;32.47;18.17;;;;;;;;;;5017168;28;20233;-81
2024/01/19 05:02:40;;;;;;;37.25;18.80;;;;;;;;;;5002020;28;20426;-81
2024/01/19 05:05:07;;;;;;;32.78;19.27;;;;;;;;;;5002476;28;20262;-81
2024/01/19 05:07:34;;;;;;;39.08;22.42;;;;;;;;;;5002226;28;20645;-81
2024/01/19 05:10:00;;;;;;;42.70;22.65;;;;;;;;;;5002179;28;20222;-81
2024/01/19 05:12:26;;;;;;;44.00;25.02;;;;;;;;;;5001620;28;20217;-81
2024/01/19 05:14:52;;;;;;;45.92;25.45;;;;;;;;;;5003005;28;20230;-81
2024/01/19 05:17:18;;;;;;;35.80;21.92;;;;;;;;;;5000869;28;20254;-81
2024/01/19 05:19:44;;;;;;;38.05;18.33;;;;;;;;;;5002349;28;20171;-81
2024/01/19 05:22:10;;;;;;;29.60;15.68;;;;;;;;;;5002417;28;20234;-81
2024/01/19 05:24:43;;;;;;;28.45;16.10;;;;;;;;;;5019443;28;20191;-81
2024/01/19 05:27:09;;;;;;;28.70;16.30;;;;;;;;;;5002607;28;20176;-81
2024/01/19 05:29:35;;;;;;;28.25;14.90;;;;;;;;;;5001222;28;20594;-81
2024/01/19 05:32:01;;;;;;;29.02;15.80;;;;;;;;;;5016936;28;20243;-81
2024/01/19 05:34:27;;;;;;;28.40;14.57;;;;;;;;;;5002115;28;20259;-81
2024/01/19 05:36:53;;;;;;;22.70;13.57;;;;;;;;;;5017311;28;20176;-81
2024/01/19 05:39:19;;;;;;;32.53;15.30;;;;;;;;;;5001399;28;20563;-81
2024/01/19 05:41:45;;;;;;;27.05;15.23;;;;;;;;;;5017941;28;20179;-81
2024/01/19 05:44:11;;;;;;;29.67;14.23;;;;;;;;;;5002252;28;20258;-81
2024/01/19 05:46:37;;;;;;;25.08;13.80;;;;;;;;;;5001407;28;20229;-81
2024/01/19 05:49:03;;;;;;;27.43;14.87;;;;;;;;;;5001241;28;20640;-80
2024/01/19 05:51:29;;;;;;;26.42;14.32;;;;;;;;;;5000325;28;20910;-81
2024/01/19 05:53:55;;;;;;;25.35;14.75;;;;;;;;;;5000932;28;20208;-81
2024/01/19 05:56:21;;;;;;;27.13;15.80;;;;;;;;;;5002737;28;20191;-81
2024/01/19 05:58:47;;;;;;;22.88;13.55;;;;;;;;;;5000676;28;20546;-81
2024/01/19 06:01:13;;;;;;;22.67;11.60;;;;;;;;;;5016154;28;20198;-84
2024/01/19 06:03:39;;;;;;;27.65;14.80;;;;;;;;;;5016300;28;20188;-81
2024/01/19 06:06:05;;;;;;;25.27;14.20;;;;;;;;;;5018757;28;20544;-81
2024/01/19 06:08:32;;;;;;;25.15;12.93;;;;;;;;;;5020171;28;20182;-81
2024/01/19 06:10:58;;;;;;;24.55;12.75;;;;;;;;;;5020115;28;20237;-81
2024/01/19 06:13:24;;;;;;;27.45;13.00;;;;;;;;;;5009015;28;20182;-81
2024/01/19 06:15:50;;;;;;;20.33;12.13;;;;;;;;;;5020303;28;20190;-81
2024/01/19 06:18:16;;;;;;;22.42;11.90;;;;;;;;;;5018724;28;20687;-81
2024/01/19 06:20:42;;;;;;;24.23;13.70;;;;;;;;;;5019980;28;20190;-81
2024/01/19 06:23:12;;;;;;;24.42;12.70;;;;;;;;;;5021413;28;20229;-81
2024/01/19 06:25:39;;;;;;;29.40;12.95;;;;;;;;;;5039521;28;20203;-81
2024/01/19 06:28:06;;;;;;;26.50;11.77;;;;;;;;;;5039509;28;20185;-81
2024/01/19 06:30:32;;;;;;;27.13;12.18;;;;;;;;;;5039605;28;20201;-81
2024/01/19 06:32:58;;;;;;;23.33;13.10;;;;;;;;;;5035648;28;20211;-82
2024/01/19 06:35:24;;;;;;;27.23;13.05;;;;;;;;;;5002219;28;20186;-81
2024/01/19 06:37:50;;;;;;;22.13;12.05;;;;;;;;;;5018479;28;20184;-81
2024/01/19 06:40:16;;;;;;;24.00;12.88;;;;;;;;;;5019675;28;20186;-82
2024/01/19 06:42:45;;;;;;;25.10;12.48;;;;;;;;;;5019671;28;20588;-81
2024/01/19 06:45:12;;;;;;;23.75;11.35;;;;;;;;;;5019774;28;20179;-81
2024/01/19 06:47:38;;;;;;;21.70;11.52;;;;;;;;;;5018727;28;20163;-82
2024/01/19 06:50:04;;;;;;;28.63;13.68;;;;;;;;;;5019532;28;20208;-82
2024/01/19 06:52:30;;;;;;;22.23;12.05;;;;;;;;;;5019174;28;20241;-81
2024/01/19 06:54:56;;;;;;;30.73;13.15;;;;;;;;;;5019483;28;20657;-82
2024/01/19 06:57:22;;;;;;;22.20;12.13;;;;;;;;;;5019584;28;20177;-83
2024/01/19 06:59:49;;;;;;;23.30;12.80;;;;;;;;;;5019891;28;20205;-82
2024/01/19 07:02:15;;;;;;;27.60;13.30;;;;;;;;;;5018328;28;20197;-82
2024/01/19 07:04:41;;;;;;;24.10;12.50;;;;;;;;;;5019264;28;20233;-82
2024/01/19 07:07:07;;;;;;;24.50;13.70;;;;;;;;;;5018969;28;20177;-82
2024/01/19 07:09:33;;;;;;;24.20;13.77;;;;;;;;;;5018000;28;20203;-82
2024/01/19 07:11:59;;;;;;;31.30;13.32;;;;;;;;;;5018522;28;20269;-82
2024/01/19 07:14:25;;;;;;;26.13;13.57;;;;;;;;;;5020002;28;20175;-82
2024/01/19 07:16:51;;;;;;;27.98;14.10;;;;;;;;;;5018283;28;20175;-82
2024/01/19 07:19:17;;;;;;;27.90;14.32;;;;;;;;;;5021847;28;20263;-82
2024/01/19 07:21:43;;;;;;;27.50;15.48;;;;;;;;;;5023087;28;20242;-82
2024/01/19 07:24:10;;;;;;;24.70;14.18;;;;;;;;;;5022793;28;20230;-82
2024/01/19 07:26:36;;;;;;;23.60;13.38;;;;;;;;;;5023312;28;20214;-82
2024/01/19 07:29:06;;;;;;;24.65;13.05;;;;;;;;;;5023412;28;20175;-82
2024/01/19 07:31:32;;;;;;;36.22;14.30;;;;;;;;;;5022951;28;20199;-82
2024/01/19 07:33:58;;;;;;;29.33;14.18;;;;;;;;;;5023081;28;20175;-82
2024/01/19 07:36:24;;;;;;;27.25;14.40;;;;;;;;;;5022299;28;20639;-82
2024/01/19 07:38:50;;;;;;;25.98;13.38;;;;;;;;;;5022963;28;20537;-81
2024/01/19 07:41:16;;;;;;;23.33;12.73;;;;;;;;;;5022363;28;20171;-81
2024/01/19 07:43:42;;;;;;;28.07;14.40;;;;;;;;;;5028772;28;20194;-82
2024/01/19 07:46:08;;;;;;;30.55;13.68;;;;;;;;;;5043212;28;20411;-81
2024/01/19 07:48:34;;;;;;;28.02;13.30;;;;;;;;;;5041909;28;20197;-81
2024/01/19 07:51:00;;;;;;;29.55;12.80;;;;;;;;;;5042263;28;20217;-81
2024/01/19 07:53:26;;;;;;;28.90;14.18;;;;;;;;;;5042036;28;20514;-82
2024/01/19 07:55:52;;;;;;;25.60;12.82;;;;;;;;;;5041226;28;20181;-82
2024/01/19 07:58:18;;;;;;;23.38;13.80;;;;;;;;;;5022815;28;20172;-81
2024/01/19 08:00:44;;;;;;;25.75;13.18;;;;;;;;;;5022574;28;20230;-81
2024/01/19 08:03:10;;;;;;;22.25;14.00;;;;;;;;;;5022820;28;20176;-81
2024/01/19 08:05:36;;;;;;;24.27;13.43;;;;;;;;;;5022753;28;20261;-81
2024/01/19 08:08:02;;;;;;;26.60;15.10;;;;;;;;;;5021300;28;20198;-81
2024/01/19 08:10:31;;;;;;;30.48;13.90;;;;;;;;;;5018221;28;20321;-80
2024/01/19 08:12:59;;;;;;;27.55;14.63;;;;;;;;;;5011155;28;20261;-79
2024/01/19 08:15:25;;;;;;;31.10;14.27;;;;;;;;;;5020650;28;20165;-85
2024/01/19 08:17:51;;;;;;;33.10;17.27;;;;;;;;;;5017853;28;20203;-85
2024/01/19 08:20:17;;;;;;;30.42;15.38;;;;;;;;;;5018629;28;20243;-84
2024/01/19 08:22:43;;;;;;;29.42;15.50;;;;;;;;;;5019180;28;20176;-85
2024/01/19 08:25:09;;;;;;;34.17;17.52;;;;;;;;;;5020092;28;20247;-85
2024/01/19 08:27:36;;;;;;;34.10;14.95;;;;;;;;;;5019607;28;20188;-85
2024/01/19 08:30:02;;;;;;;31.08;15.07;;;;;;;;;;5020099;28;20176;-85
2024/01/19 08:32:28;;;;;;;28.63;16.88;;;;;;;;;;5020607;28;20217;-91
2024/01/19 08:34:54;;;;;;;28.73;15.30;;;;;;;;;;5021185;28;20166;-85
2024/01/19 08:37:20;;;;;;;39.88;17.10;;;;;;;;;;5021267;28;20171;-85
2024/01/19 08:39:46;;;;;;;35.83;15.65;;;;;;;;;;5021036;28;20196;-90
2024/01/19 08:42:12;;;;;;;32.25;16.70;;;;;;;;;;5021154;28;20206;-86
2024/01/19 08:44:45;;;;;;;30.30;16.20;;;;;;;;;;5037997;28;20183;-85
2024/01/19 08:47:11;;;;;;;31.40;15.98;;;;;;;;;;5039118;28;20183;-87
2024/01/19 08:49:37;;;;;;;36.15;16.85;;;;;;;;;;5033371;28;20169;-85
2024/01/19 08:52:03;;;;;;;28.77;15.60;;;;;;;;;;5019256;28;20219;-85
2024/01/19 08:54:29;;;;;;;45.58;19.90;;;;;;;;;;5018640;28;20203;-83
2024/01/19 08:56:55;;;;;;;30.77;15.93;;;;;;;;;;5018017;28;20189;-84
2024/01/19 08:59:22;;;;;;;33.47;19.33;;;;;;;;;;5019949;28;20174;-84
2024/01/19 09:01:48;;;;;;;32.60;17.40;;;;;;;;;;5019767;28;20171;-84
2024/01/19 09:04:15;;;;;;;39.80;18.35;;;;;;;;;;5018483;28;20541;-84
2024/01/19 09:06:41;;;;;;;31.85;17.63;;;;;;;;;;5019993;28;20214;-83
2024/01/19 09:09:08;;;;;;;42.58;20.00;;;;;;;;;;5019688;28;20165;-84
2024/01/19 09:11:34;;;;;;;37.72;19.33;;;;;;;;;;5018592;28;20230;-85
2024/01/19 09:14:02;;;;;;;37.65;20.67;;;;;;;;;;5018287;28;20480;-84
2024/01/19 09:16:28;;;;;;;41.83;16.83;;;;;;;;;;5005743;28;20178;-84
2024/01/19 09:18:54;;;;;;;39.25;18.52;;;;;;;;;;4999003;28;20239;-83
2024/01/19 09:21:20;;;;;;;39.55;20.20;;;;;;;;;;4998549;28;20193;-83
2024/01/19 09:23:46;;;;;;;35.95;19.10;;;;;;;;;;5000447;28;20171;-84
2024/01/19 09:26:18;;;;;;;35.30;18.05;;;;;;;;;;5003245;28;20177;-84
2024/01/19 09:28:44;;;;;;;39.45;20.45;;;;;;;;;;5017867;28;20178;-84
2024/01/19 09:31:10;;;;;;;40.78;21.13;;;;;;;;;;5019051;28;20214;-84
2024/01/19 09:33:37;;;;;;;40.27;18.90;;;;;;;;;;5019584;28;20186;-84
2024/01/19 09:36:03;;;;;;;40.20;20.05;;;;;;;;;;5018454;28;20485;-86
2024/01/19 09:38:29;;;;;;;41.03;20.55;;;;;;;;;;5019851;28;20205;-85
2024/01/19 09:40:59;;;;;;;40.30;22.35;;;;;;;;;;5017980;28;20179;-83
2024/01/19 09:43:25;;;;;;;43.65;19.98;;;;;;;;;;5017661;28;20641;-86
2024/01/19 09:45:52;;;;;;;43.08;20.95;;;;;;;;;;5020120;28;20208;-83
2024/01/19 09:48:26;;;;;;;40.88;21.10;;;;;;;;;;5019985;28;20175;-84
2024/01/19 09:50:53;;;;;;;39.88;21.15;;;;;;;;;;5018207;28;20677;-85
2024/01/19 09:53:19;;;;;;;41.97;24.15;;;;;;;;;;5019496;28;20625;-85
2024/01/19 09:55:47;;;;;;;48.10;22.50;;;;;;;;;;5018350;28;20224;-85
2024/01/19 09:58:14;;;;;;;41.67;21.67;;;;;;;;;;5018829;28;20537;-85
2024/01/19 10:00:40;;;;;;;47.13;22.02;;;;;;;;;;5019412;28;20222;-85
2024/01/19 10:03:07;;;;;;;41.88;21.58;;;;;;;;;;5018962;28;20571;-85
2024/01/19 10:05:35;;;;;;;47.65;24.42;;;;;;;;;;5018842;28;20225;-85
2024/01/19 10:08:04;;;;;;;50.22;24.58;;;;;;;;;;5019094;28;20167;-85
2024/01/19 10:10:29;;;;;;;54.45;24.15;;;;;;;;;;5018349;28;20231;-85
2024/01/19 10:12:56;;;;;;;44.78;22.40;;;;;;;;;;5019533;28;20185;-85
2024/01/19 10:15:22;;;;;;;48.50;24.25;;;;;;;;;;5018803;28;20173;-84
2024/01/19 10:17:48;;;;;;;41.45;23.77;;;;;;;;;;5019120;28;20174;-84
2024/01/19 10:20:15;;;;;;;52.58;24.48;;;;;;;;;;5017863;28;20183;-84
2024/01/19 10:22:41;;;;;;;47.03;23.40;;;;;;;;;;5018530;28;20159;-84
2024/01/19 10:25:11;;;;;;;44.85;22.55;;;;;;;;;;5017374;28;20206;-84
2024/01/19 10:27:40;;;;;;;49.25;25.70;;;;;;;;;;5018647;28;20637;-84
2024/01/19 10:30:10;;;;;;;44.38;23.67;;;;;;;;;;5017620;28;20257;-84
2024/01/19 10:32:40;;;;;;;45.00;23.00;;;;;;;;;;5018711;28;20186;-84
2024/01/19 10:35:07;;;;;;;50.33;25.95;;;;;;;;;;5021878;28;20527;-84
2024/01/19 10:37:33;;;;;;;47.80;25.38;;;;;;;;;;5018858;28;20159;-84
2024/01/19 10:40:13;;;;;;;53.50;23.65;;;;;;;;;;5018383;28;20182;-84
2024/01/19 10:42:40;;;;;;;46.65;24.70;;;;;;;;;;5018774;28;20174;-84
2024/01/19 10:45:27;;;;;;;52.00;24.80;;;;;;;;;;5017627;28;20173;-84
2024/01/19 10:47:54;;;;;;;47.75;25.33;;;;;;;;;;5018372;28;20183;-85
2024/01/19 10:50:20;;;;;;;47.10;24.20;;;;;;;;;;5018043;28;20266;-85
2024/01/19 10:52:53;;;;;;;55.33;25.55;;;;;;;;;;5018014;28;20203;-85
2024/01/19 10:55:23;;;;;;;46.35;24.73;;;;;;;;;;5021151;28;20179;-85
2024/01/19 10:57:51;;;;;;;48.30;25.05;;;;;;;;;;5022632;28;20175;-85
2024/01/19 11:00:21;;;;;;;47.20;25.67;;;;;;;;;;5022678;28;20169;-85
2024/01/19 11:02:51;;;;;;;45.53;25.17;;;;;;;;;;5022420;28;20534;-85
2024/01/19 11:05:21;;;;;;;46.13;23.75;;;;;;;;;;5021525;28;20185;-85
2024/01/19 11:07:54;;;;;;;44.75;24.90;;;;;;;;;;5022911;28;20172;-85
2024/01/19 11:10:25;;;;;;;40.42;23.05;;;;;;;;;;5022215;28;20235;-85
2024/01/19 11:13:00;;;;;;;43.50;22.08;;;;;;;;;;5022449;28;20200;-86
2024/01/19 11:15:29;;;;;;;50.85;23.00;;;;;;;;;;5020361;28;20522;-85
2024/01/19 11:17:57;;;;;;;49.38;24.95;;;;;;;;;;5004092;28;20271;-85
2024/01/19 11:20:23;;;;;;;46.47;23.80;;;;;;;;;;5003318;28;20184;-86
2024/01/19 11:22:51;;;;;;;38.38;23.63;;;;;;;;;;5003196;28;20175;-84
2024/01/19 11:25:19;;;;;;;40.30;20.02;;;;;;;;;;5003270;28;20165;-84
2024/01/19 11:28:05;;;;;;;42.60;20.05;;;;;;;;;;5020784;28;20167;-83
2024/01/19 11:30:40;;;;;;;41.42;21.77;;;;;;;;;;5006373;28;20181;-83
2024/01/19 11:33:17;;;;;;;33.80;18.60;;;;;;;;;;5019211;28;20500;-84
2024/01/19 11:35:48;;;;;;;35.53;19.40;;;;;;;;;;5002420;28;20268;-84
2024/01/19 11:38:34;;;;;;;31.83;18.05;;;;;;;;;;5002627;28;20176;-85
2024/01/19 11:41:00;;;;;;;31.73;17.42;;;;;;;;;;5003830;28;20653;-84
2024/01/19 11:43:44;;;;;;;31.90;16.10;;;;;;;;;;5002760;28;20176;-84
2024/01/19 11:46:10;;;;;;;27.67;15.70;;;;;;;;;;5003005;28;20409;-85
2024/01/19 11:48:43;;;;;;;32.22;16.88;;;;;;;;;;5002681;28;20171;-85
2024/01/19 11:51:31;;;;;;;27.58;15.70;;;;;;;;;;5002541;28;20231;-85
2024/01/19 11:53:58;;;;;;;27.40;15.93;;;;;;;;;;5016987;28;20207;-86
2024/01/19 11:56:25;;;;;;;32.08;16.20;;;;;;;;;;5001857;28;20178;-87
2024/01/19 11:58:51;;;;;;;25.42;13.13;;;;;;;;;;5001154;28;20185;-89
2024/01/19 12:01:17;;;;;;;23.83;12.70;;;;;;;;;;5002215;28;20621;-88
2024/01/19 12:03:43;;;;;;;23.02;12.95;;;;;;;;;;5000548;28;20538;-89
2024/01/19 12:06:10;;;;;;;24.52;12.20;;;;;;;;;;5001170;28;20225;-87
2024/01/19 12:08:36;;;;;;;27.20;13.48;;;;;;;;;;5000157;28;20644;-88
2024/01/19 12:11:02;;;;;;;26.67;14.55;;;;;;;;;;5019634;28;20227;-89
2024/01/19 12:13:31;;;;;;;21.52;12.30;;;;;;;;;;5020309;28;20172;-89
2024/01/19 12:15:57;;;;;;;26.73;13.32;;;;;;;;;;5020350;28;20164;-90
2024/01/19 12:18:23;;;;;;;22.73;12.93;;;;;;;;;;5020116;28;20260;-90
2024/01/19 12:20:53;;;;;;;24.52;11.77;;;;;;;;;;5018871;28;20192;-91
2024/01/19 12:23:20;;;;;;;24.55;12.88;;;;;;;;;;5020442;28;20268;-91
2024/01/19 12:25:46;;;;;;;19.73;12.68;;;;;;;;;;5020187;28;20174;-90
2024/01/19 12:28:14;;;;;;;23.88;12.70;;;;;;;;;;5019282;28;20181;-90
2024/01/19 12:30:40;;;;;;;19.73;11.55;;;;;;;;;;5019470;28;20197;-90
2024/01/19 12:33:17;;;;;;;24.42;13.30;;;;;;;;;;5018650;28;20184;-89
2024/01/19 12:35:45;;;;;;;21.30;11.30;;;;;;;;;;5019156;28;20617;-90
2024/01/19 12:38:11;;;;;;;23.67;11.40;;;;;;;;;;5019526;28;20171;-90
2024/01/19 12:40:40;;;;;;;21.85;11.88;;;;;;;;;;5010310;28;20210;-90
2024/01/19 12:43:06;;;;;;;22.08;12.98;;;;;;;;;;4999915;28;20176;-91
2024/01/19 12:45:32;;;;;;;21.30;11.57;;;;;;;;;;5014490;28;20200;-91
2024/01/19 12:48:01;;;;;;;24.98;11.80;;;;;;;;;;5000779;28;20637;-92
2024/01/19 12:50:28;;;;;;;17.77;11.05;;;;;;;;;;5006007;28;20186;-91
2024/01/19 12:52:54;;;;;;;22.95;11.88;;;;;;;;;;5019970;28;20235;-92
2024/01/19 12:55:47;;;;;;;24.58;12.35;;;;;;;;;;5019075;28;20652;-91
2024/01/19 12:58:21;;;;;;;22.92;12.45;;;;;;;;;;5017005;28;20567;-91
2024/01/19 13:00:47;;;;;;;26.45;12.90;;;;;;;;;;5019338;28;20178;-91
2024/01/19 13:03:17;;;;;;;18.17;10.70;;;;;;;;;;5017594;28;20653;-87
2024/01/19 13:05:44;;;;;;;20.95;11.00;;;;;;;;;;5019178;28;20405;-87
2024/01/19 13:08:10;;;;;;;22.02;12.52;;;;;;;;;;5018803;28;20173;-87
2024/01/19 13:10:36;;;;;;;19.50;11.75;;;;;;;;;;5019121;28;20236;-87
2024/01/19 13:13:09;;;;;;;24.05;13.05;;;;;;;;;;5018284;28;20638;-87
2024/01/19 13:15:35;;;;;;;29.65;12.90;;;;;;;;;;5018963;28;20173;-88
2024/01/19 13:18:10;;;;;;;25.88;13.80;;;;;;;;;;5017966;28;20237;-88
2024/01/19 13:20:36;;;;;;;25.35;13.48;;;;;;;;;;5019511;28;20241;-87
2024/01/19 13:23:02;;;;;;;24.15;13.07;;;;;;;;;;5018657;28;20186;-88
2024/01/19 13:25:28;;;;;;;23.40;12.53;;;;;;;;;;5018728;28;20178;-88
2024/01/19 13:27:55;;;;;;;25.23;14.15;;;;;;;;;;5019317;28;20403;-88
2024/01/19 13:30:25;;;;;;;23.55;13.13;;;;;;;;;;5018718;28;20182;-89
2024/01/19 13:32:51;;;;;;;23.40;13.45;;;;;;;;;;5019213;28;20207;-89
2024/01/19 13:35:17;;;;;;;23.27;12.43;;;;;;;;;;5018851;28;20177;-90
2024/01/19 13:37:43;;;;;;;28.50;14.35;;;;;;;;;;5018395;28;20722;-90
2024/01/19 13:40:11;;;;;;;25.13;13.30;;;;;;;;;;5019056;28;20178;-91
2024/01/19 13:42:37;;;;;;;27.88;12.68;;;;;;;;;;5017477;28;20186;-91
2024/01/19 13:45:04;;;;;;;29.42;12.82;;;;;;;;;;5017661;28;20173;-92
2024/01/19 13:47:30;;;;;;;28.23;12.18;;;;;;;;;;5018821;28;20166;-90
2024/01/19 13:49:56;;;;;;;24.73;12.63;;;;;;;;;;5018280;28;20223;-90
2024/01/19 13:52:22;;;;;;;21.17;12.03;;;;;;;;;;5016713;28;20465;-90
2024/01/19 13:54:48;;;;;;;24.08;12.55;;;;;;;;;;5017581;28;20761;-90
2024/01/19 13:57:14;;;;;;;22.10;14.20;;;;;;;;;;5017640;28;20178;-90
2024/01/19 13:59:40;;;;;;;23.77;13.90;;;;;;;;;;5016350;28;20492;-87
2024/01/19 14:02:07;;;;;;;27.90;13.80;;;;;;;;;;5017568;28;20425;-90
2024/01/19 14:04:33;;;;;;;23.88;12.70;;;;;;;;;;5017489;28;20394;-89
2024/01/19 14:06:59;;;;;;;23.90;12.98;;;;;;;;;;5016600;28;20197;-91
2024/01/19 14:09:25;;;;;;;27.00;14.23;;;;;;;;;;5016840;28;20634;-89
2024/01/19 14:11:51;;;;;;;29.02;13.57;;;;;;;;;;5015517;28;20222;-89
2024/01/19 14:14:17;;;;;;;24.45;13.73;;;;;;;;;;5017835;28;20185;-88
2024/01/19 14:16:44;;;;;;;23.50;13.88;;;;;;;;;;5017200;28;20186;-88